createdAt,value
2022-10-13T00:01:11.358Z,24.80
2022-10-13T00:03:40.497Z,22.53
2022-10-13T00:06:10.210Z,29.47
2022-10-13T00:08:40.310Z,23.60
2022-10-13T00:11:13.820Z,25.87
2022-10-13T00:13:42.681Z,27.63
2022-10-13T00:16:11.718Z,27.40
2022-10-13T00:18:39.971Z,24.63
2022-10-13T00:21:10.376Z,25.43
2022-10-13T00:23:40.733Z,25.67
2022-10-13T00:26:10.787Z,27.33
2022-10-13T00:28:39.926Z,29.13
2022-10-13T00:31:16.797Z,25.20
2022-10-13T00:33:45.017Z,27.43
2022-10-13T00:36:13.179Z,26.20
2022-10-13T00:38:43.050Z,22.57
2022-10-13T00:41:11.561Z,22.53
2022-10-13T00:44:08.657Z,24.60
2022-10-13T00:46:38.218Z,26.57
2022-10-13T00:49:09.747Z,24.77
2022-10-13T00:51:42.485Z,24.53
2022-10-13T00:54:15.050Z,23.60
2022-10-13T00:56:43.475Z,26.90
2022-10-13T00:59:23.254Z,27.53
2022-10-13T01:01:52.417Z,24.23
2022-10-13T01:04:23.938Z,27.47
2022-10-13T01:06:52.987Z,24.37
2022-10-13T01:09:22.567Z,29.60
2022-10-13T01:12:02.330Z,23.40
2022-10-13T01:14:35.383Z,26.57
2022-10-13T01:17:12.725Z,24.30
2022-10-13T01:20:09.456Z,24.70
2022-10-13T01:22:52.893Z,22.00
2022-10-13T01:25:51.346Z,25.80
2022-10-13T01:28:41.195Z,25.97
2022-10-13T01:31:16.281Z,23.83
2022-10-13T01:33:47.929Z,25.77
2022-10-13T01:36:27.247Z,24.60
2022-10-13T01:39:02.194Z,24.83
2022-10-13T01:41:37.046Z,24.03
2022-10-13T01:44:12.375Z,25.40
2022-10-13T01:46:43.889Z,27.70
2022-10-13T01:49:15.074Z,25.73
2022-10-13T01:51:45.769Z,28.27
2022-10-13T01:54:13.949Z,23.47
2022-10-13T01:56:42.154Z,27.33
2022-10-13T01:59:15.092Z,25.13
2022-10-13T02:01:58.389Z,25.87
2022-10-13T02:04:38.464Z,25.53
2022-10-13T02:07:13.610Z,23.80
2022-10-13T02:09:50.484Z,26.23
2022-10-13T02:12:26.095Z,27.97
2022-10-13T02:14:56.121Z,26.87
2022-10-13T02:17:27.244Z,29.43
2022-10-13T02:19:56.661Z,29.53
2022-10-13T02:22:30.218Z,26.17
2022-10-13T02:24:58.599Z,23.80
2022-10-13T02:27:27.254Z,30.10
2022-10-13T02:29:57.709Z,27.60
2022-10-13T02:32:27.679Z,26.27
2022-10-13T02:34:55.962Z,23.47
2022-10-13T02:37:25.538Z,24.03
2022-10-13T02:39:54.005Z,24.23
2022-10-13T02:42:22.600Z,26.57
2022-10-13T02:44:51.149Z,25.17
2022-10-13T02:47:19.340Z,26.70
2022-10-13T02:49:48.986Z,25.40
2022-10-13T02:52:17.373Z,23.17
2022-10-13T02:54:45.882Z,28.57
2022-10-13T02:57:14.083Z,25.33
2022-10-13T02:59:42.235Z,26.03
2022-10-13T03:02:10.453Z,29.30
2022-10-13T03:04:38.578Z,29.73
2022-10-13T03:07:08.122Z,24.63
2022-10-13T03:09:36.301Z,27.30
2022-10-13T03:12:04.733Z,28.23
2022-10-13T03:14:32.888Z,27.30
2022-10-13T03:17:01.279Z,24.70
2022-10-13T03:19:29.480Z,26.17
2022-10-13T03:21:57.891Z,20.20
2022-10-13T03:24:27.444Z,26.27
2022-10-13T03:26:55.622Z,23.13
2022-10-13T03:29:23.845Z,26.73
2022-10-13T03:31:52.133Z,24.53
2022-10-13T03:34:20.603Z,24.77
2022-10-13T03:36:48.773Z,24.37
2022-10-13T03:39:17.129Z,23.67
2022-10-13T03:41:46.707Z,24.90
2022-10-13T03:44:15.067Z,24.17
2022-10-13T03:46:43.280Z,22.27
2022-10-13T03:49:12.194Z,27.80
2022-10-13T03:51:40.626Z,24.67
2022-10-13T03:54:08.946Z,25.43
2022-10-13T03:56:37.321Z,24.33
2022-10-13T03:59:07.275Z,26.23
2022-10-13T04:01:35.704Z,26.73
2022-10-13T04:04:04.163Z,26.53
2022-10-13T04:06:32.772Z,27.67
2022-10-13T04:09:00.955Z,23.03
2022-10-13T04:11:29.139Z,26.67
2022-10-13T04:13:58.003Z,22.80
2022-10-13T04:16:28.792Z,26.90
2022-10-13T04:18:59.248Z,26.87
2022-10-13T04:21:28.154Z,26.63
2022-10-13T04:23:58.246Z,22.30
2022-10-13T04:26:28.306Z,26.13
2022-10-13T04:28:56.960Z,22.77
2022-10-13T04:31:29.372Z,25.50
2022-10-13T04:33:58.157Z,24.00
2022-10-13T04:36:27.003Z,28.67
2022-10-13T04:38:55.368Z,29.57
2022-10-13T04:41:24.335Z,27.37
2022-10-13T04:43:53.546Z,30.87
2022-10-13T04:46:23.624Z,26.03
2022-10-13T04:48:54.745Z,23.97
2022-10-13T04:51:25.341Z,26.07
2022-10-13T04:53:56.304Z,28.70
2022-10-13T04:56:25.689Z,24.37
2022-10-13T04:58:53.981Z,24.67
2022-10-13T05:01:24.063Z,28.50
2022-10-13T05:03:55.346Z,30.47
2022-10-13T05:06:26.765Z,30.57
2022-10-13T05:08:55.946Z,27.50
2022-10-13T05:11:25.507Z,25.30
2022-10-13T05:13:53.808Z,28.27
2022-10-13T05:16:23.390Z,27.93
2022-10-13T05:18:54.456Z,23.67
2022-10-13T05:21:24.723Z,26.70
2022-10-13T05:23:55.413Z,26.17
2022-10-13T05:26:27.921Z,28.50
2022-10-13T05:28:56.619Z,24.30
2022-10-13T05:31:26.278Z,24.90
2022-10-13T05:33:56.567Z,25.27
2022-10-13T05:36:27.825Z,26.17
2022-10-13T05:38:57.767Z,24.97
2022-10-13T05:41:27.227Z,26.57
2022-10-13T05:43:59.160Z,27.73
2022-10-13T05:46:27.529Z,24.90
2022-10-13T05:48:57.096Z,26.43
2022-10-13T05:51:27.359Z,24.80
2022-10-13T05:54:02.298Z,23.93
2022-10-13T05:56:37.347Z,23.20
2022-10-13T05:59:07.890Z,22.17
2022-10-13T06:01:40.307Z,24.93
2022-10-13T06:04:13.433Z,28.00
2022-10-13T06:06:41.717Z,24.33
2022-10-13T06:09:10.049Z,24.07
2022-10-13T06:11:38.208Z,29.90
2022-10-13T06:14:06.541Z,23.63
2022-10-13T06:16:36.653Z,24.07
2022-10-13T06:19:05.107Z,25.60
2022-10-13T06:21:35.705Z,21.67
2022-10-13T06:24:03.917Z,28.13
2022-10-13T06:26:33.539Z,28.90
2022-10-13T06:29:01.910Z,23.97
2022-10-13T06:31:30.222Z,22.67
2022-10-13T06:33:59.474Z,29.00
2022-10-13T06:36:28.083Z,24.70
2022-10-13T06:38:57.626Z,20.80
2022-10-13T06:41:25.752Z,22.90
2022-10-13T06:43:53.932Z,22.07
2022-10-13T06:46:22.286Z,23.33
2022-10-13T06:48:51.998Z,23.83
2022-10-13T06:51:20.506Z,22.13
2022-10-13T06:53:48.632Z,23.20
2022-10-13T06:56:18.567Z,23.53
2022-10-13T06:58:46.764Z,24.73
2022-10-13T07:01:15.246Z,20.63
2022-10-13T07:03:43.371Z,23.13
2022-10-13T07:06:11.822Z,23.83
2022-10-13T07:08:40.007Z,21.83
2022-10-13T07:11:14.538Z,22.53
2022-10-13T07:13:46.845Z,23.30
2022-10-13T07:16:16.373Z,24.33
2022-10-13T07:18:44.678Z,23.67
2022-10-13T07:21:12.959Z,21.33
2022-10-13T07:23:41.181Z,24.93
2022-10-13T07:26:10.665Z,25.50
2022-10-13T07:28:39.637Z,23.17
2022-10-13T07:31:14.101Z,25.57
2022-10-13T07:33:43.050Z,23.37
2022-10-13T07:36:11.447Z,24.43
2022-10-13T07:38:39.816Z,24.73
2022-10-13T07:41:10.216Z,26.03
2022-10-13T07:43:38.472Z,29.60
2022-10-13T07:46:07.940Z,32.70
2022-10-13T07:48:37.738Z,29.63
2022-10-13T07:51:07.369Z,28.57
2022-10-13T07:53:36.270Z,25.73
2022-10-13T07:56:05.752Z,29.43
2022-10-13T07:58:34.261Z,25.30
2022-10-13T08:01:03.298Z,25.63
2022-10-13T08:03:32.911Z,28.37
2022-10-13T08:06:03.591Z,31.07
2022-10-13T08:08:32.664Z,30.13
2022-10-13T08:11:02.640Z,33.17
2022-10-13T08:13:31.074Z,28.60
2022-10-13T08:16:01.645Z,34.43
2022-10-13T08:18:30.472Z,35.13
2022-10-13T08:21:32.956Z,28.67
2022-10-13T08:23:51.974Z,26.70
2022-10-13T08:26:24.011Z,24.90
2022-10-13T08:31:41.278Z,31.03
2022-10-13T08:34:09.984Z,30.20
2022-10-13T08:36:40.326Z,29.73
2022-10-13T08:39:08.946Z,28.27
2022-10-13T08:41:40.554Z,30.95
2022-10-13T08:47:16.480Z,26.42
2022-10-13T08:49:46.276Z,29.80
2022-10-13T08:52:21.962Z,29.17
2022-10-13T08:54:51.373Z,27.45
2022-10-13T08:57:20.029Z,30.35
2022-10-13T08:59:48.692Z,29.70
2022-10-13T09:02:24.677Z,30.27
2022-10-13T09:04:54.647Z,33.28
2022-10-13T09:07:27.985Z,32.70
2022-10-13T09:09:56.820Z,31.70
2022-10-13T09:12:26.302Z,31.83
2022-10-13T09:15:01.367Z,32.38
2022-10-13T09:17:31.192Z,33.80
2022-10-13T09:20:01.515Z,30.25
2022-10-13T09:22:33.908Z,32.08
2022-10-13T09:25:20.343Z,31.02
2022-10-13T09:27:50.845Z,32.63
2022-10-13T09:30:38.231Z,27.70
2022-10-13T09:33:21.161Z,31.52
2022-10-13T09:35:51.009Z,29.42
2022-10-13T09:38:22.188Z,28.55
2022-10-13T09:41:03.689Z,31.08
2022-10-13T09:43:34.620Z,30.33
2022-10-13T09:46:11.860Z,29.67
2022-10-13T09:48:42.426Z,25.58
2022-10-13T09:51:32.049Z,25.05
2022-10-13T09:54:01.670Z,26.27
2022-10-13T09:56:36.944Z,26.88
2022-10-13T09:59:15.898Z,24.77
2022-10-13T10:01:47.240Z,27.63
2022-10-13T10:04:20.449Z,31.73
2022-10-13T10:06:48.710Z,31.92
2022-10-13T10:09:35.997Z,32.85
2022-10-13T10:12:06.483Z,33.65
2022-10-13T10:14:37.434Z,28.98
2022-10-13T10:17:15.607Z,37.08
2022-10-13T10:19:53.569Z,31.65
2022-10-13T10:22:33.781Z,33.10
2022-10-13T10:25:25.708Z,33.28
2022-10-13T10:28:06.275Z,29.42
2022-10-13T10:30:42.631Z,31.58
2022-10-13T10:33:14.390Z,33.97
2022-10-13T10:35:49.856Z,30.42
2022-10-13T10:38:30.283Z,32.38
2022-10-13T10:41:06.719Z,32.30
2022-10-13T10:43:43.248Z,31.65
2022-10-13T10:46:18.184Z,30.52
2022-10-13T10:48:47.946Z,31.55
2022-10-13T10:51:16.383Z,33.03
2022-10-13T10:53:55.586Z,32.40
2022-10-13T10:56:33.223Z,32.58
2022-10-13T10:59:13.103Z,31.05
2022-10-13T11:01:50.214Z,30.98
2022-10-13T11:04:40.836Z,32.85
2022-10-13T11:07:14.224Z,30.27
2022-10-13T11:10:18.951Z,30.13
2022-10-13T11:13:10.116Z,31.17
2022-10-13T11:15:47.104Z,29.92
2022-10-13T11:19:07.239Z,33.20
2022-10-13T11:22:14.895Z,32.92
2022-10-13T11:24:57.408Z,32.45
2022-10-13T11:27:44.305Z,34.28
2022-10-13T11:30:49.970Z,31.13
2022-10-13T11:33:56.012Z,30.90
2022-10-13T11:36:56.047Z,31.55
2022-10-13T11:39:59.436Z,31.65
2022-10-13T11:43:05.138Z,33.45
2022-10-13T11:46:01.870Z,37.88
2022-10-13T11:48:43.556Z,35.17
2022-10-13T11:51:23.319Z,33.47
2022-10-13T11:53:59.279Z,33.33
2022-10-13T11:56:39.493Z,34.55
2022-10-13T11:59:21.349Z,29.60
2022-10-13T12:01:54.787Z,32.63
2022-10-13T12:04:24.658Z,32.47
2022-10-13T12:07:00.382Z,31.20
2022-10-13T12:09:31.540Z,29.67
2022-10-13T12:12:02.932Z,30.08
2022-10-13T12:17:25.484Z,28.90
2022-10-13T12:19:54.375Z,33.05
2022-10-13T12:22:22.827Z,29.75
2022-10-13T12:24:59.927Z,31.98
2022-10-13T12:27:29.294Z,29.70
2022-10-13T12:29:57.442Z,30.70
2022-10-13T12:32:29.827Z,31.63
2022-10-13T12:34:58.107Z,28.00
2022-10-13T12:37:29.631Z,28.98
2022-10-13T12:39:59.393Z,27.65
2022-10-13T12:42:30.795Z,28.58
2022-10-13T12:45:00.285Z,29.55
2022-10-13T12:47:47.062Z,27.17
2022-10-13T12:50:36.814Z,25.98
2022-10-13T12:53:12.151Z,30.67
2022-10-13T12:55:56.357Z,28.08
2022-10-13T12:58:27.763Z,28.13
2022-10-13T13:01:28.217Z,26.02
2022-10-13T13:04:00.580Z,29.75
2022-10-13T13:06:39.774Z,26.63
2022-10-13T13:09:27.469Z,25.40
2022-10-13T13:12:32.446Z,25.70
2022-10-13T13:15:20.893Z,24.17
2022-10-13T13:18:04.320Z,24.52
2022-10-13T13:20:37.836Z,25.58
2022-10-13T13:23:06.003Z,26.77
2022-10-13T13:25:34.293Z,27.20
2022-10-13T13:28:05.537Z,25.33
2022-10-13T13:30:33.857Z,25.13
2022-10-13T13:33:02.059Z,24.58
2022-10-13T13:35:30.260Z,25.55
2022-10-13T13:38:00.138Z,24.77
2022-10-13T13:40:29.678Z,28.70
2022-10-13T13:42:57.932Z,25.35
2022-10-13T13:45:26.157Z,28.15
2022-10-13T13:47:59.550Z,25.80
2022-10-13T13:50:33.035Z,25.92
2022-10-13T13:53:02.842Z,25.27
2022-10-13T13:55:31.400Z,27.20
2022-10-13T13:58:00.192Z,26.45
2022-10-13T14:00:28.642Z,25.00
2022-10-13T14:02:57.307Z,25.92
2022-10-13T14:05:25.754Z,21.77
2022-10-13T14:07:56.775Z,25.85
2022-10-13T14:10:27.915Z,23.65
2022-10-13T14:12:56.163Z,23.70
2022-10-13T14:15:28.826Z,24.23
2022-10-13T14:17:58.086Z,23.90
2022-10-13T14:20:26.326Z,24.73
2022-10-13T14:22:54.528Z,23.85
2022-10-13T14:25:22.893Z,23.48
2022-10-13T14:27:52.903Z,21.58
2022-10-13T14:30:21.224Z,21.67
2022-10-13T14:32:49.450Z,22.48
2022-10-13T14:35:17.753Z,23.00
2022-10-13T14:37:45.911Z,23.27
2022-10-13T14:40:14.137Z,21.73
2022-10-13T14:42:42.559Z,25.05
2022-10-13T14:45:13.422Z,21.33
2022-10-13T14:47:41.577Z,22.80
2022-10-13T14:50:10.833Z,22.75
2022-10-13T14:52:38.934Z,23.98
2022-10-13T14:55:07.610Z,22.95
2022-10-13T14:57:35.789Z,24.83
2022-10-13T15:00:04.732Z,21.55
2022-10-13T15:02:34.378Z,22.48
2022-10-13T15:05:02.526Z,22.83
2022-10-13T15:07:30.680Z,23.05
2022-10-13T15:10:06.628Z,20.83
2022-10-13T15:12:35.458Z,23.63
2022-10-13T15:15:04.000Z,25.23
2022-10-13T15:17:34.154Z,22.35
2022-10-13T15:20:02.358Z,21.60
2022-10-13T15:22:30.674Z,24.10
2022-10-13T15:24:59.095Z,22.20
2022-10-13T15:27:27.367Z,24.70
2022-10-13T15:29:55.551Z,23.73
2022-10-13T15:32:24.079Z,23.67
2022-10-13T15:34:54.408Z,23.10
2022-10-13T15:37:22.628Z,25.58
2022-10-13T15:39:56.055Z,23.30
2022-10-13T15:42:25.566Z,22.83
2022-10-13T15:45:10.913Z,22.98
2022-10-13T15:47:39.506Z,23.33
2022-10-13T15:50:10.191Z,26.05
2022-10-13T15:52:41.781Z,24.20
2022-10-13T15:55:11.630Z,25.58
2022-10-13T15:57:40.044Z,25.27
2022-10-13T16:00:10.597Z,24.27
2022-10-13T16:02:40.344Z,22.48
2022-10-13T16:05:12.810Z,23.55
2022-10-13T16:07:41.716Z,27.17
2022-10-13T16:10:12.182Z,26.23
2022-10-13T16:12:43.399Z,23.42
2022-10-13T16:15:15.060Z,23.83
2022-10-13T16:17:45.571Z,26.85
2022-10-13T16:20:15.311Z,26.23
2022-10-13T16:22:43.482Z,26.63
2022-10-13T16:25:12.201Z,26.23
2022-10-13T16:27:44.078Z,27.80
2022-10-13T16:30:13.668Z,26.08
2022-10-13T16:32:41.898Z,27.58
2022-10-13T16:35:10.302Z,25.33
2022-10-13T16:37:39.905Z,27.67
2022-10-13T16:40:09.089Z,28.45
2022-10-13T16:42:37.269Z,26.63
2022-10-13T16:45:06.424Z,25.63
2022-10-13T16:47:34.604Z,27.48
2022-10-13T16:50:06.268Z,26.08
2022-10-13T16:52:34.535Z,26.80
2022-10-13T16:55:04.438Z,25.70
2022-10-13T16:57:33.029Z,26.42
2022-10-13T17:00:01.237Z,28.88
2022-10-13T17:02:29.490Z,25.83
2022-10-13T17:04:57.639Z,23.90
2022-10-13T17:07:25.895Z,26.52
2022-10-13T17:09:54.036Z,25.70
2022-10-13T17:12:23.620Z,27.77
2022-10-13T17:14:51.763Z,27.08
2022-10-13T17:17:20.094Z,28.40
2022-10-13T17:19:48.356Z,24.98
2022-10-13T17:22:16.542Z,23.75
2022-10-13T17:24:48.212Z,30.02
2022-10-13T17:27:17.044Z,26.75
2022-10-13T17:29:46.822Z,27.67
2022-10-13T17:32:15.365Z,27.15
2022-10-13T17:34:43.552Z,29.52
2022-10-13T17:37:11.855Z,28.85
2022-10-13T17:39:40.306Z,28.75
2022-10-13T17:42:08.485Z,26.25
2022-10-13T17:44:36.710Z,28.30
2022-10-13T17:47:06.407Z,25.98
2022-10-13T17:49:34.881Z,29.27
2022-10-13T17:52:03.079Z,29.00
2022-10-13T17:54:31.257Z,27.10
2022-10-13T17:56:59.417Z,28.55
2022-10-13T17:59:27.623Z,28.30
2022-10-13T18:01:55.838Z,27.27
2022-10-13T18:04:25.850Z,27.10
2022-10-13T18:06:54.559Z,26.23
2022-10-13T18:09:24.508Z,26.45
2022-10-13T18:11:54.433Z,29.92
2022-10-13T18:14:24.523Z,31.55
2022-10-13T18:16:53.904Z,33.05
2022-10-13T18:19:22.894Z,46.92
2022-10-13T18:21:53.293Z,46.15
2022-10-13T18:24:21.629Z,48.60
2022-10-13T18:26:49.831Z,48.70
2022-10-13T18:29:18.020Z,47.55
2022-10-13T18:31:46.286Z,49.30
2022-10-13T18:34:17.704Z,47.28
2022-10-13T18:36:47.827Z,49.97
2022-10-13T18:39:18.639Z,46.65
2022-10-13T18:41:47.901Z,47.08
2022-10-13T18:44:16.223Z,50.17
2022-10-13T18:46:45.872Z,48.05
2022-10-13T18:49:18.183Z,46.17
2022-10-13T18:51:46.733Z,49.60
2022-10-13T18:54:16.286Z,49.70
2022-10-13T18:56:44.512Z,48.38
2022-10-13T18:59:12.832Z,47.72
2022-10-13T19:01:41.673Z,48.88
2022-10-13T19:04:12.695Z,47.47
2022-10-13T19:06:41.507Z,49.65
2022-10-13T19:09:12.842Z,46.33
2022-10-13T19:11:43.062Z,46.92
2022-10-13T19:14:14.065Z,46.30
2022-10-13T19:16:44.132Z,47.03
2022-10-13T19:19:12.929Z,44.70
2022-10-13T19:21:41.486Z,43.50
2022-10-13T19:24:10.732Z,43.47
2022-10-13T19:26:39.582Z,44.22
2022-10-13T19:29:11.296Z,42.53
2022-10-13T19:31:41.444Z,41.70
2022-10-13T19:34:10.622Z,43.88
2022-10-13T19:36:40.742Z,37.58
2022-10-13T19:39:12.020Z,43.60
2022-10-13T19:41:40.583Z,37.72
2022-10-13T19:44:10.268Z,41.13
2022-10-13T19:46:38.598Z,37.72
2022-10-13T19:49:07.344Z,41.08
2022-10-13T19:51:35.571Z,41.40
2022-10-13T19:54:03.895Z,40.35
2022-10-13T19:56:33.914Z,42.83
2022-10-13T19:59:04.369Z,43.15
2022-10-13T20:01:39.731Z,40.10
2022-10-13T20:04:08.681Z,43.13
2022-10-13T20:06:37.382Z,41.90
2022-10-13T20:09:05.698Z,41.67
2022-10-13T20:11:34.033Z,37.28
2022-10-13T20:14:02.231Z,42.03
2022-10-13T20:16:30.437Z,39.08
2022-10-13T20:19:03.185Z,42.72
2022-10-13T20:21:31.727Z,39.88
2022-10-13T20:23:59.884Z,42.50
2022-10-13T20:26:28.106Z,53.13
2022-10-13T20:28:58.172Z,53.83
2022-10-13T20:31:27.101Z,50.67
2022-10-13T20:33:56.770Z,52.22
2022-10-13T20:36:28.329Z,52.33
2022-10-13T20:38:57.063Z,54.72
2022-10-13T20:41:28.681Z,54.28
2022-10-13T20:43:58.867Z,51.63
2022-10-13T20:46:27.460Z,47.40
2022-10-13T20:49:10.506Z,52.20
2022-10-13T20:51:41.408Z,47.88
2022-10-13T20:54:09.815Z,51.90
2022-10-13T20:56:38.052Z,48.70
2022-10-13T20:59:08.275Z,45.55
2022-10-13T21:01:37.005Z,48.40
2022-10-13T21:04:06.217Z,46.27
2022-10-13T21:06:34.958Z,45.70
2022-10-13T21:09:04.953Z,46.92
2022-10-13T21:11:33.080Z,45.77
2022-10-13T21:14:02.988Z,48.30
2022-10-13T21:16:31.255Z,43.10
2022-10-13T21:19:00.119Z,43.47
2022-10-13T21:21:29.871Z,46.47
2022-10-13T21:24:00.616Z,45.17
2022-10-13T21:26:31.936Z,46.03
2022-10-13T21:29:00.473Z,40.60
2022-10-13T21:31:29.731Z,42.23
2022-10-13T21:33:58.257Z,44.40
2022-10-13T21:36:28.125Z,42.22
2022-10-13T21:38:58.365Z,40.77
2022-10-13T21:41:27.350Z,42.37
2022-10-13T21:43:57.259Z,46.30
2022-10-13T21:46:27.731Z,45.17
2022-10-13T21:48:57.334Z,52.17
2022-10-13T21:51:29.732Z,49.13
2022-10-13T21:54:00.715Z,55.20
2022-10-13T21:56:30.129Z,52.00
2022-10-13T21:58:59.678Z,54.77
2022-10-13T22:01:28.072Z,48.50
2022-10-13T22:03:57.752Z,55.80
2022-10-13T22:06:26.517Z,54.37
2022-10-13T22:08:57.083Z,53.03
2022-10-13T22:11:27.813Z,55.83
2022-10-13T22:13:57.395Z,64.07
2022-10-13T22:16:30.031Z,60.87
2022-10-13T22:18:59.343Z,58.33
2022-10-13T22:21:29.269Z,57.90
2022-10-13T22:23:58.976Z,63.97
2022-10-13T22:26:29.316Z,64.47
2022-10-13T22:28:58.349Z,69.47
2022-10-13T22:31:28.580Z,65.22
2022-10-13T22:33:56.786Z,66.77
2022-10-13T22:36:26.897Z,61.92
2022-10-13T22:38:57.785Z,62.57
2022-10-13T22:41:26.108Z,66.97
2022-10-13T22:43:56.066Z,68.80
2022-10-13T22:46:26.600Z,64.30
2022-10-13T22:48:56.482Z,68.17
2022-10-13T22:51:26.487Z,69.27
2022-10-13T22:53:54.999Z,65.53
2022-10-13T22:56:25.935Z,60.97
2022-10-13T22:58:55.995Z,63.00
2022-10-13T23:01:25.330Z,61.83
2022-10-13T23:03:56.939Z,64.10
2022-10-13T23:06:28.128Z,65.13
2022-10-13T23:08:56.824Z,62.07
2022-10-13T23:11:25.005Z,66.70
2022-10-13T23:13:53.175Z,64.60
2022-10-13T23:16:23.243Z,60.37
2022-10-13T23:18:51.886Z,61.47
2022-10-13T23:21:23.304Z,62.17
2022-10-13T23:23:55.983Z,63.63
2022-10-13T23:26:24.325Z,70.20
2022-10-13T23:28:52.638Z,66.17
2022-10-13T23:31:20.839Z,62.80
2022-10-13T23:33:49.006Z,59.53
2022-10-13T23:36:18.864Z,61.07
2022-10-13T23:38:50.198Z,57.87
2022-10-13T23:41:18.427Z,60.97
2022-10-13T23:43:46.739Z,58.13
2022-10-13T23:46:14.937Z,62.87
2022-10-13T23:48:43.246Z,59.23
2022-10-13T23:51:13.509Z,63.00
2022-10-13T23:53:42.633Z,63.43
2022-10-13T23:56:13.157Z,60.83
2022-10-13T23:58:43.746Z,61.13
